sensor_id;sensor_type;location;lat;lon;timestamp;P1;durP1;ratioP1;P2;durP2;ratioP2
16822;SDS011;8528;49.976;11.858;2022-11-15T00:01:17;12.13;;;7.87;;
16822;SDS011;8528;49.976;11.858;2022-11-15T00:03:45;12.97;;;8.67;;
16822;SDS011;8528;49.976;11.858;2022-11-15T00:06:13;16.80;;;9.67;;
16822;SDS011;8528;49.976;11.858;2022-11-15T00:08:39;16.63;;;8.97;;
16822;SDS011;8528;49.976;11.858;2022-11-15T00:11:06;14.33;;;9.37;;
16822;SDS011;8528;49.976;11.858;2022-11-15T00:13:37;13.67;;;9.10;;
16822;SDS011;8528;49.976;11.858;2022-11-15T00:16:04;16.23;;;9.20;;
16822;SDS011;8528;49.976;11.858;2022-11-15T00:18:31;16.43;;;10.57;;
16822;SDS011;8528;49.976;11.858;2022-11-15T00:21:05;15.07;;;9.27;;
16822;SDS011;8528;49.976;11.858;2022-11-15T00:23:35;15.33;;;9.33;;
16822;SDS011;8528;49.976;11.858;2022-11-15T00:26:02;14.80;;;8.90;;
16822;SDS011;8528;49.976;11.858;2022-11-15T00:28:29;15.00;;;9.67;;
16822;SDS011;8528;49.976;11.858;2022-11-15T00:31:00;14.03;;;8.93;;
16822;SDS011;8528;49.976;11.858;2022-11-15T00:33:30;14.43;;;8.53;;
16822;SDS011;8528;49.976;11.858;2022-11-15T00:36:04;11.70;;;8.27;;
16822;SDS011;8528;49.976;11.858;2022-11-15T00:38:38;12.87;;;8.93;;
16822;SDS011;8528;49.976;11.858;2022-11-15T00:41:06;11.67;;;8.03;;
16822;SDS011;8528;49.976;11.858;2022-11-15T00:43:35;14.30;;;8.50;;
16822;SDS011;8528;49.976;11.858;2022-11-15T00:46:03;14.17;;;8.27;;
16822;SDS011;8528;49.976;11.858;2022-11-15T00:48:31;11.93;;;8.77;;
16822;SDS011;8528;49.976;11.858;2022-11-15T00:50:59;12.50;;;8.80;;
16822;SDS011;8528;49.976;11.858;2022-11-15T00:53:25;16.83;;;10.20;;
16822;SDS011;8528;49.976;11.858;2022-11-15T00:55:52;16.37;;;9.63;;
16822;SDS011;8528;49.976;11.858;2022-11-15T00:58:19;16.07;;;9.40;;
16822;SDS011;8528;49.976;11.858;2022-11-15T01:00:46;16.67;;;10.90;;
16822;SDS011;8528;49.976;11.858;2022-11-15T01:03:15;13.90;;;8.83;;
16822;SDS011;8528;49.976;11.858;2022-11-15T01:05:42;11.83;;;8.20;;
16822;SDS011;8528;49.976;11.858;2022-11-15T01:08:15;15.93;;;8.73;;
16822;SDS011;8528;49.976;11.858;2022-11-15T01:10:42;15.87;;;8.90;;
16822;SDS011;8528;49.976;11.858;2022-11-15T01:13:09;14.50;;;8.67;;
16822;SDS011;8528;49.976;11.858;2022-11-15T01:15:39;16.27;;;9.43;;
16822;SDS011;8528;49.976;11.858;2022-11-15T01:18:07;18.00;;;10.30;;
16822;SDS011;8528;49.976;11.858;2022-11-15T01:20:34;11.83;;;7.30;;
16822;SDS011;8528;49.976;11.858;2022-11-15T01:23:07;12.10;;;7.40;;
16822;SDS011;8528;49.976;11.858;2022-11-15T01:25:34;13.20;;;7.70;;
16822;SDS011;8528;49.976;11.858;2022-11-15T01:28:00;11.90;;;7.17;;
16822;SDS011;8528;49.976;11.858;2022-11-15T01:30:27;13.77;;;7.80;;
16822;SDS011;8528;49.976;11.858;2022-11-15T01:32:54;11.33;;;6.53;;
16822;SDS011;8528;49.976;11.858;2022-11-15T01:35:21;15.13;;;7.57;;
16822;SDS011;8528;49.976;11.858;2022-11-15T01:37:48;11.83;;;7.80;;
16822;SDS011;8528;49.976;11.858;2022-11-15T01:40:15;12.43;;;6.93;;
16822;SDS011;8528;49.976;11.858;2022-11-15T01:42:42;11.57;;;7.17;;
16822;SDS011;8528;49.976;11.858;2022-11-15T01:45:15;12.20;;;7.13;;
16822;SDS011;8528;49.976;11.858;2022-11-15T01:47:44;10.80;;;6.93;;
16822;SDS011;8528;49.976;11.858;2022-11-15T01:50:16;12.87;;;7.90;;
16822;SDS011;8528;49.976;11.858;2022-11-15T01:52:47;11.67;;;6.63;;
16822;SDS011;8528;49.976;11.858;2022-11-15T01:55:21;13.20;;;7.70;;
16822;SDS011;8528;49.976;11.858;2022-11-15T01:57:53;13.07;;;7.57;;
16822;SDS011;8528;49.976;11.858;2022-11-15T02:00:24;12.90;;;7.67;;
16822;SDS011;8528;49.976;11.858;2022-11-15T02:02:51;14.07;;;7.70;;
16822;SDS011;8528;49.976;11.858;2022-11-15T02:05:17;19.13;;;8.30;;
16822;SDS011;8528;49.976;11.858;2022-11-15T02:07:45;12.67;;;7.50;;
16822;SDS011;8528;49.976;11.858;2022-11-15T02:10:17;11.17;;;6.90;;
16822;SDS011;8528;49.976;11.858;2022-11-15T02:12:46;12.10;;;7.40;;
16822;SDS011;8528;49.976;11.858;2022-11-15T02:15:14;12.80;;;7.30;;
16822;SDS011;8528;49.976;11.858;2022-11-15T02:17:51;17.43;;;8.07;;
16822;SDS011;8528;49.976;11.858;2022-11-15T02:23:41;11.53;;;7.30;;
16822;SDS011;8528;49.976;11.858;2022-11-15T02:34:07;13.00;;;6.47;;
16822;SDS011;8528;49.976;11.858;2022-11-15T02:43:00;15.10;;;7.43;;
16822;SDS011;8528;49.976;11.858;2022-11-15T02:46:05;15.30;;;7.67;;
16822;SDS011;8528;49.976;11.858;2022-11-15T02:48:41;18.27;;;8.10;;
16822;SDS011;8528;49.976;11.858;2022-11-15T02:51:09;9.77;;;6.13;;
16822;SDS011;8528;49.976;11.858;2022-11-15T02:53:37;18.80;;;7.30;;
16822;SDS011;8528;49.976;11.858;2022-11-15T02:56:04;15.00;;;8.17;;
16822;SDS011;8528;49.976;11.858;2022-11-15T03:04:22;13.90;;;7.73;;
16822;SDS011;8528;49.976;11.858;2022-11-15T03:09:43;16.53;;;8.37;;
16822;SDS011;8528;49.976;11.858;2022-11-15T03:12:41;19.03;;;8.37;;
16822;SDS011;8528;49.976;11.858;2022-11-15T03:15:19;17.57;;;8.90;;
16822;SDS011;8528;49.976;11.858;2022-11-15T03:18:00;12.80;;;7.23;;
16822;SDS011;8528;49.976;11.858;2022-11-15T03:20:33;13.47;;;7.70;;
16822;SDS011;8528;49.976;11.858;2022-11-15T03:23:06;12.33;;;7.53;;
16822;SDS011;8528;49.976;11.858;2022-11-15T03:25:37;12.87;;;7.43;;
16822;SDS011;8528;49.976;11.858;2022-11-15T03:28:12;12.03;;;6.87;;
16822;SDS011;8528;49.976;11.858;2022-11-15T03:30:45;9.53;;;6.60;;
16822;SDS011;8528;49.976;11.858;2022-11-15T03:33:14;11.90;;;7.50;;
16822;SDS011;8528;49.976;11.858;2022-11-15T03:35:42;12.33;;;7.37;;
16822;SDS011;8528;49.976;11.858;2022-11-15T03:38:22;13.13;;;7.70;;
16822;SDS011;8528;49.976;11.858;2022-11-15T03:40:58;15.93;;;8.43;;
16822;SDS011;8528;49.976;11.858;2022-11-15T03:43:53;14.43;;;7.67;;
16822;SDS011;8528;49.976;11.858;2022-11-15T03:46:28;16.67;;;8.80;;
16822;SDS011;8528;49.976;11.858;2022-11-15T03:49:05;15.63;;;8.80;;
16822;SDS011;8528;49.976;11.858;2022-11-15T03:51:46;17.07;;;8.57;;
16822;SDS011;8528;49.976;11.858;2022-11-15T03:54:13;13.53;;;7.53;;
16822;SDS011;8528;49.976;11.858;2022-11-15T03:56:40;10.73;;;6.93;;
16822;SDS011;8528;49.976;11.858;2022-11-15T03:59:07;12.10;;;6.53;;
16822;SDS011;8528;49.976;11.858;2022-11-15T04:01:34;11.47;;;7.47;;
16822;SDS011;8528;49.976;11.858;2022-11-15T04:04:01;15.23;;;8.40;;
16822;SDS011;8528;49.976;11.858;2022-11-15T04:06:29;13.93;;;7.77;;
16822;SDS011;8528;49.976;11.858;2022-11-15T04:08:56;17.40;;;8.37;;
16822;SDS011;8528;49.976;11.858;2022-11-15T04:11:23;16.47;;;8.50;;
16822;SDS011;8528;49.976;11.858;2022-11-15T04:13:50;22.77;;;9.23;;
16822;SDS011;8528;49.976;11.858;2022-11-15T04:16:16;25.40;;;10.33;;
16822;SDS011;8528;49.976;11.858;2022-11-15T04:18:43;15.97;;;9.13;;
16822;SDS011;8528;49.976;11.858;2022-11-15T04:21:10;19.80;;;10.40;;
16822;SDS011;8528;49.976;11.858;2022-11-15T04:23:59;19.90;;;10.53;;
16822;SDS011;8528;49.976;11.858;2022-11-15T04:26:31;18.33;;;10.03;;
16822;SDS011;8528;49.976;11.858;2022-11-15T04:28:59;19.70;;;10.37;;
16822;SDS011;8528;49.976;11.858;2022-11-15T04:31:44;19.73;;;10.27;;
16822;SDS011;8528;49.976;11.858;2022-11-15T04:34:11;18.93;;;9.90;;
16822;SDS011;8528;49.976;11.858;2022-11-15T04:36:38;20.37;;;9.60;;
16822;SDS011;8528;49.976;11.858;2022-11-15T04:39:23;19.83;;;9.50;;
16822;SDS011;8528;49.976;11.858;2022-11-15T04:41:50;19.37;;;10.20;;
16822;SDS011;8528;49.976;11.858;2022-11-15T04:44:17;24.47;;;10.70;;
16822;SDS011;8528;49.976;11.858;2022-11-15T04:46:44;19.47;;;10.70;;
16822;SDS011;8528;49.976;11.858;2022-11-15T04:49:11;23.43;;;10.73;;
16822;SDS011;8528;49.976;11.858;2022-11-15T04:51:37;20.50;;;10.07;;
16822;SDS011;8528;49.976;11.858;2022-11-15T04:54:04;19.70;;;10.77;;
16822;SDS011;8528;49.976;11.858;2022-11-15T04:56:31;21.50;;;10.47;;
16822;SDS011;8528;49.976;11.858;2022-11-15T04:58:58;16.60;;;9.63;;
16822;SDS011;8528;49.976;11.858;2022-11-15T05:01:25;19.23;;;10.17;;
16822;SDS011;8528;49.976;11.858;2022-11-15T05:03:54;21.90;;;10.47;;
16822;SDS011;8528;49.976;11.858;2022-11-15T05:06:49;20.67;;;9.83;;
16822;SDS011;8528;49.976;11.858;2022-11-15T05:09:20;18.53;;;10.97;;
16822;SDS011;8528;49.976;11.858;2022-11-15T05:11:48;15.57;;;9.70;;
16822;SDS011;8528;49.976;11.858;2022-11-15T05:14:15;15.17;;;9.43;;
16822;SDS011;8528;49.976;11.858;2022-11-15T05:16:44;16.00;;;8.70;;
16822;SDS011;8528;49.976;11.858;2022-11-15T05:19:11;16.77;;;9.13;;
16822;SDS011;8528;49.976;11.858;2022-11-15T05:21:38;16.37;;;8.70;;
16822;SDS011;8528;49.976;11.858;2022-11-15T05:24:12;17.67;;;9.60;;
16822;SDS011;8528;49.976;11.858;2022-11-15T05:26:38;18.57;;;9.63;;
16822;SDS011;8528;49.976;11.858;2022-11-15T05:29:05;16.50;;;9.50;;
16822;SDS011;8528;49.976;11.858;2022-11-15T05:31:32;14.60;;;7.93;;
16822;SDS011;8528;49.976;11.858;2022-11-15T05:34:04;15.10;;;8.17;;
16822;SDS011;8528;49.976;11.858;2022-11-15T05:36:36;12.80;;;7.80;;
16822;SDS011;8528;49.976;11.858;2022-11-15T05:39:05;12.93;;;8.00;;
16822;SDS011;8528;49.976;11.858;2022-11-15T05:41:36;15.73;;;8.53;;
16822;SDS011;8528;49.976;11.858;2022-11-15T05:44:10;16.40;;;8.33;;
16822;SDS011;8528;49.976;11.858;2022-11-15T05:46:40;15.60;;;8.43;;
16822;SDS011;8528;49.976;11.858;2022-11-15T05:49:11;15.23;;;8.37;;
16822;SDS011;8528;49.976;11.858;2022-11-15T05:51:42;14.10;;;8.27;;
16822;SDS011;8528;49.976;11.858;2022-11-15T05:54:12;14.03;;;8.83;;
16822;SDS011;8528;49.976;11.858;2022-11-15T05:56:47;18.07;;;9.40;;
16822;SDS011;8528;49.976;11.858;2022-11-15T05:59:15;15.50;;;8.57;;
16822;SDS011;8528;49.976;11.858;2022-11-15T06:01:42;18.00;;;8.77;;
16822;SDS011;8528;49.976;11.858;2022-11-15T06:04:10;16.97;;;9.20;;
16822;SDS011;8528;49.976;11.858;2022-11-15T06:06:37;19.70;;;10.10;;
16822;SDS011;8528;49.976;11.858;2022-11-15T06:09:05;19.87;;;10.03;;
16822;SDS011;8528;49.976;11.858;2022-11-15T06:11:32;19.63;;;9.97;;
16822;SDS011;8528;49.976;11.858;2022-11-15T06:13:59;21.27;;;10.30;;
16822;SDS011;8528;49.976;11.858;2022-11-15T06:16:25;18.07;;;9.40;;
16822;SDS011;8528;49.976;11.858;2022-11-15T06:18:52;15.70;;;10.03;;
16822;SDS011;8528;49.976;11.858;2022-11-15T06:21:19;17.60;;;8.70;;
16822;SDS011;8528;49.976;11.858;2022-11-15T06:23:47;15.97;;;8.37;;
16822;SDS011;8528;49.976;11.858;2022-11-15T06:26:15;19.97;;;10.03;;
16822;SDS011;8528;49.976;11.858;2022-11-15T06:28:41;15.93;;;9.13;;
16822;SDS011;8528;49.976;11.858;2022-11-15T06:31:09;15.10;;;7.97;;
16822;SDS011;8528;49.976;11.858;2022-11-15T06:33:38;17.57;;;8.43;;
16822;SDS011;8528;49.976;11.858;2022-11-15T06:36:09;17.10;;;9.30;;
16822;SDS011;8528;49.976;11.858;2022-11-15T06:38:43;18.10;;;9.03;;
16822;SDS011;8528;49.976;11.858;2022-11-15T06:41:11;15.87;;;8.80;;
16822;SDS011;8528;49.976;11.858;2022-11-15T06:43:43;14.87;;;8.90;;
16822;SDS011;8528;49.976;11.858;2022-11-15T06:46:10;16.70;;;9.40;;
16822;SDS011;8528;49.976;11.858;2022-11-15T06:48:37;17.50;;;9.73;;
16822;SDS011;8528;49.976;11.858;2022-11-15T06:51:04;16.70;;;9.40;;
16822;SDS011;8528;49.976;11.858;2022-11-15T06:53:34;15.40;;;9.30;;
16822;SDS011;8528;49.976;11.858;2022-11-15T06:56:03;19.07;;;9.50;;
16822;SDS011;8528;49.976;11.858;2022-11-15T06:58:31;20.73;;;10.40;;
16822;SDS011;8528;49.976;11.858;2022-11-15T07:01:02;28.13;;;13.77;;
16822;SDS011;8528;49.976;11.858;2022-11-15T07:03:34;16.43;;;8.57;;
16822;SDS011;8528;49.976;11.858;2022-11-15T07:06:05;23.17;;;9.87;;
16822;SDS011;8528;49.976;11.858;2022-11-15T07:08:33;20.80;;;10.17;;
16822;SDS011;8528;49.976;11.858;2022-11-15T07:11:01;21.07;;;11.80;;
16822;SDS011;8528;49.976;11.858;2022-11-15T07:13:30;31.20;;;14.73;;
16822;SDS011;8528;49.976;11.858;2022-11-15T07:16:05;23.77;;;12.83;;
16822;SDS011;8528;49.976;11.858;2022-11-15T07:18:34;28.13;;;14.03;;
16822;SDS011;8528;49.976;11.858;2022-11-15T07:21:07;33.10;;;14.73;;
16822;SDS011;8528;49.976;11.858;2022-11-15T07:23:36;17.23;;;10.60;;
16822;SDS011;8528;49.976;11.858;2022-11-15T07:26:05;16.30;;;9.10;;
16822;SDS011;8528;49.976;11.858;2022-11-15T07:28:33;17.13;;;9.33;;
16822;SDS011;8528;49.976;11.858;2022-11-15T07:31:02;16.27;;;8.00;;
16822;SDS011;8528;49.976;11.858;2022-11-15T07:33:34;16.07;;;8.20;;
16822;SDS011;8528;49.976;11.858;2022-11-15T07:36:02;18.53;;;9.07;;
16822;SDS011;8528;49.976;11.858;2022-11-15T07:38:30;15.87;;;9.67;;
16822;SDS011;8528;49.976;11.858;2022-11-15T07:41:04;22.47;;;10.53;;
16822;SDS011;8528;49.976;11.858;2022-11-15T07:43:33;17.80;;;10.90;;
16822;SDS011;8528;49.976;11.858;2022-11-15T07:46:04;21.30;;;12.00;;
16822;SDS011;8528;49.976;11.858;2022-11-15T07:48:36;19.83;;;11.77;;
16822;SDS011;8528;49.976;11.858;2022-11-15T07:51:13;18.30;;;10.57;;
16822;SDS011;8528;49.976;11.858;2022-11-15T07:53:42;17.10;;;10.37;;
16822;SDS011;8528;49.976;11.858;2022-11-15T07:56:09;14.70;;;8.97;;
16822;SDS011;8528;49.976;11.858;2022-11-15T07:58:37;13.27;;;7.97;;
16822;SDS011;8528;49.976;11.858;2022-11-15T08:01:05;15.07;;;8.03;;
16822;SDS011;8528;49.976;11.858;2022-11-15T08:03:33;12.43;;;8.20;;
16822;SDS011;8528;49.976;11.858;2022-11-15T08:06:01;11.47;;;7.87;;
16822;SDS011;8528;49.976;11.858;2022-11-15T08:08:28;12.70;;;8.43;;
16822;SDS011;8528;49.976;11.858;2022-11-15T08:10:57;13.37;;;8.67;;
16822;SDS011;8528;49.976;11.858;2022-11-15T08:13:26;14.60;;;9.40;;
16822;SDS011;8528;49.976;11.858;2022-11-15T08:15:57;11.00;;;8.07;;
16822;SDS011;8528;49.976;11.858;2022-11-15T08:18:25;11.43;;;9.13;;
16822;SDS011;8528;49.976;11.858;2022-11-15T08:20:52;11.87;;;8.40;;
16822;SDS011;8528;49.976;11.858;2022-11-15T08:23:19;11.30;;;8.80;;
16822;SDS011;8528;49.976;11.858;2022-11-15T08:25:45;10.80;;;8.07;;
16822;SDS011;8528;49.976;11.858;2022-11-15T08:28:12;12.53;;;8.27;;
16822;SDS011;8528;49.976;11.858;2022-11-15T08:30:42;12.63;;;8.93;;
16822;SDS011;8528;49.976;11.858;2022-11-15T08:33:12;11.67;;;8.20;;
16822;SDS011;8528;49.976;11.858;2022-11-15T08:35:40;12.63;;;8.33;;
16822;SDS011;8528;49.976;11.858;2022-11-15T08:38:08;12.67;;;8.10;;
16822;SDS011;8528;49.976;11.858;2022-11-15T08:40:35;10.53;;;8.17;;
16822;SDS011;8528;49.976;11.858;2022-11-15T08:43:02;12.23;;;8.07;;
16822;SDS011;8528;49.976;11.858;2022-11-15T08:45:30;15.60;;;10.90;;
16822;SDS011;8528;49.976;11.858;2022-11-15T08:47:57;12.70;;;8.40;;
16822;SDS011;8528;49.976;11.858;2022-11-15T08:50:27;13.17;;;9.00;;
16822;SDS011;8528;49.976;11.858;2022-11-15T08:52:54;18.17;;;11.00;;
16822;SDS011;8528;49.976;11.858;2022-11-15T08:55:21;16.40;;;9.10;;
16822;SDS011;8528;49.976;11.858;2022-11-15T08:57:51;21.60;;;10.00;;
16822;SDS011;8528;49.976;11.858;2022-11-15T09:00:19;11.77;;;8.40;;
16822;SDS011;8528;49.976;11.858;2022-11-15T09:02:47;15.83;;;9.30;;
16822;SDS011;8528;49.976;11.858;2022-11-15T09:05:13;15.47;;;8.73;;
16822;SDS011;8528;49.976;11.858;2022-11-15T09:07:41;11.73;;;7.53;;
16822;SDS011;8528;49.976;11.858;2022-11-15T09:10:08;9.40;;;7.30;;
16822;SDS011;8528;49.976;11.858;2022-11-15T09:12:35;9.77;;;7.97;;
16822;SDS011;8528;49.976;11.858;2022-11-15T09:15:02;11.23;;;8.10;;
16822;SDS011;8528;49.976;11.858;2022-11-15T09:17:32;11.60;;;8.17;;
16822;SDS011;8528;49.976;11.858;2022-11-15T09:19:58;10.87;;;8.43;;
16822;SDS011;8528;49.976;11.858;2022-11-15T09:22:25;12.23;;;8.87;;
16822;SDS011;8528;49.976;11.858;2022-11-15T09:24:52;13.20;;;8.73;;
16822;SDS011;8528;49.976;11.858;2022-11-15T09:27:19;13.20;;;9.37;;
16822;SDS011;8528;49.976;11.858;2022-11-15T09:29:45;11.20;;;9.70;;
16822;SDS011;8528;49.976;11.858;2022-11-15T09:32:14;11.53;;;8.00;;
16822;SDS011;8528;49.976;11.858;2022-11-15T09:34:40;9.40;;;6.50;;
16822;SDS011;8528;49.976;11.858;2022-11-15T09:37:07;8.57;;;6.47;;
16822;SDS011;8528;49.976;11.858;2022-11-15T09:39:35;10.87;;;6.80;;
16822;SDS011;8528;49.976;11.858;2022-11-15T09:44:56;6.97;;;5.77;;
16822;SDS011;8528;49.976;11.858;2022-11-15T09:50:48;9.43;;;6.23;;
16822;SDS011;8528;49.976;11.858;2022-11-15T09:53:26;10.13;;;6.43;;
16822;SDS011;8528;49.976;11.858;2022-11-15T09:56:47;8.03;;;5.60;;
16822;SDS011;8528;49.976;11.858;2022-11-15T10:04:36;7.47;;;5.70;;
16822;SDS011;8528;49.976;11.858;2022-11-15T10:07:16;7.13;;;5.67;;
16822;SDS011;8528;49.976;11.858;2022-11-15T10:10:23;8.07;;;5.53;;
16822;SDS011;8528;49.976;11.858;2022-11-15T10:12:56;7.00;;;5.73;;
16822;SDS011;8528;49.976;11.858;2022-11-15T10:15:24;10.73;;;7.33;;
16822;SDS011;8528;49.976;11.858;2022-11-15T10:17:59;10.47;;;6.70;;
16822;SDS011;8528;49.976;11.858;2022-11-15T10:20:57;7.33;;;6.03;;
16822;SDS011;8528;49.976;11.858;2022-11-15T10:23:26;10.30;;;5.63;;
16822;SDS011;8528;49.976;11.858;2022-11-15T10:25:55;9.43;;;5.97;;
16822;SDS011;8528;49.976;11.858;2022-11-15T10:28:31;7.20;;;5.50;;
16822;SDS011;8528;49.976;11.858;2022-11-15T10:30:59;8.20;;;5.83;;
16822;SDS011;8528;49.976;11.858;2022-11-15T10:33:31;7.90;;;5.73;;
16822;SDS011;8528;49.976;11.858;2022-11-15T10:41:16;8.30;;;5.53;;
16822;SDS011;8528;49.976;11.858;2022-11-15T10:43:42;8.47;;;5.23;;
16822;SDS011;8528;49.976;11.858;2022-11-15T10:46:19;10.03;;;5.47;;
16822;SDS011;8528;49.976;11.858;2022-11-15T10:49:17;8.20;;;5.10;;
16822;SDS011;8528;49.976;11.858;2022-11-15T10:51:49;6.87;;;5.60;;
16822;SDS011;8528;49.976;11.858;2022-11-15T10:54:40;8.37;;;5.03;;
16822;SDS011;8528;49.976;11.858;2022-11-15T10:57:52;5.60;;;4.50;;
16822;SDS011;8528;49.976;11.858;2022-11-15T11:00:26;5.80;;;4.33;;
16822;SDS011;8528;49.976;11.858;2022-11-15T11:10:37;7.13;;;4.50;;
16822;SDS011;8528;49.976;11.858;2022-11-15T11:21:25;4.77;;;3.87;;
16822;SDS011;8528;49.976;11.858;2022-11-15T11:24:15;6.33;;;4.10;;
16822;SDS011;8528;49.976;11.858;2022-11-15T11:30:06;5.77;;;4.57;;
16822;SDS011;8528;49.976;11.858;2022-11-15T11:46:48;4.47;;;3.50;;
16822;SDS011;8528;49.976;11.858;2022-11-15T11:49:25;4.77;;;3.40;;
16822;SDS011;8528;49.976;11.858;2022-11-15T11:52:03;4.50;;;3.57;;
16822;SDS011;8528;49.976;11.858;2022-11-15T11:54:52;5.30;;;3.40;;
16822;SDS011;8528;49.976;11.858;2022-11-15T11:57:57;4.07;;;3.10;;
16822;SDS011;8528;49.976;11.858;2022-11-15T12:00:35;6.13;;;3.20;;
16822;SDS011;8528;49.976;11.858;2022-11-15T12:03:32;4.03;;;3.50;;
16822;SDS011;8528;49.976;11.858;2022-11-15T12:06:04;5.00;;;3.50;;
16822;SDS011;8528;49.976;11.858;2022-11-15T12:08:46;3.40;;;3.10;;
16822;SDS011;8528;49.976;11.858;2022-11-15T12:12:24;4.07;;;3.17;;
16822;SDS011;8528;49.976;11.858;2022-11-15T12:16:49;3.70;;;3.40;;
16822;SDS011;8528;49.976;11.858;2022-11-15T12:19:17;4.93;;;3.67;;
16822;SDS011;8528;49.976;11.858;2022-11-15T12:21:46;5.37;;;3.40;;
16822;SDS011;8528;49.976;11.858;2022-11-15T12:27:11;4.83;;;3.37;;
16822;SDS011;8528;49.976;11.858;2022-11-15T12:29:58;7.40;;;3.73;;
16822;SDS011;8528;49.976;11.858;2022-11-15T12:35:05;14.20;;;3.80;;
16822;SDS011;8528;49.976;11.858;2022-11-15T12:37:53;8.27;;;3.87;;
16822;SDS011;8528;49.976;11.858;2022-11-15T12:40:26;19.30;;;4.33;;
16822;SDS011;8528;49.976;11.858;2022-11-15T12:45:30;4.30;;;3.47;;
16822;SDS011;8528;49.976;11.858;2022-11-15T12:51:02;7.80;;;3.97;;
16822;SDS011;8528;49.976;11.858;2022-11-15T12:53:31;4.37;;;3.20;;
16822;SDS011;8528;49.976;11.858;2022-11-15T13:04:08;3.73;;;3.23;;
16822;SDS011;8528;49.976;11.858;2022-11-15T13:06:51;5.50;;;3.30;;
16822;SDS011;8528;49.976;11.858;2022-11-15T13:12:00;3.23;;;2.87;;
16822;SDS011;8528;49.976;11.858;2022-11-15T13:19:47;5.20;;;3.50;;
16822;SDS011;8528;49.976;11.858;2022-11-15T13:22:18;4.43;;;3.57;;
16822;SDS011;8528;49.976;11.858;2022-11-15T13:25:03;3.87;;;3.40;;
16822;SDS011;8528;49.976;11.858;2022-11-15T13:27:43;10.67;;;3.33;;
16822;SDS011;8528;49.976;11.858;2022-11-15T13:30:30;5.60;;;3.53;;
16822;SDS011;8528;49.976;11.858;2022-11-15T13:32:58;7.80;;;3.30;;
16822;SDS011;8528;49.976;11.858;2022-11-15T13:35:36;4.73;;;3.50;;
16822;SDS011;8528;49.976;11.858;2022-11-15T13:38:06;8.50;;;3.50;;
16822;SDS011;8528;49.976;11.858;2022-11-15T13:40:36;4.53;;;3.50;;
16822;SDS011;8528;49.976;11.858;2022-11-15T13:46:10;4.07;;;2.70;;
16822;SDS011;8528;49.976;11.858;2022-11-15T13:48:40;2.50;;;2.30;;
16822;SDS011;8528;49.976;11.858;2022-11-15T13:56:29;5.30;;;3.13;;
16822;SDS011;8528;49.976;11.858;2022-11-15T13:58:58;3.20;;;2.50;;
16822;SDS011;8528;49.976;11.858;2022-11-15T14:01:25;3.80;;;2.60;;
16822;SDS011;8528;49.976;11.858;2022-11-15T14:03:58;3.83;;;3.37;;
16822;SDS011;8528;49.976;11.858;2022-11-15T14:06:27;4.30;;;3.70;;
16822;SDS011;8528;49.976;11.858;2022-11-15T14:09:00;3.70;;;3.20;;
16822;SDS011;8528;49.976;11.858;2022-11-15T14:11:49;5.43;;;3.47;;
16822;SDS011;8528;49.976;11.858;2022-11-15T14:14:17;6.53;;;3.80;;
16822;SDS011;8528;49.976;11.858;2022-11-15T14:16:56;7.27;;;5.23;;
16822;SDS011;8528;49.976;11.858;2022-11-15T14:24:42;6.00;;;3.70;;
16822;SDS011;8528;49.976;11.858;2022-11-15T14:27:19;9.70;;;7.13;;
16822;SDS011;8528;49.976;11.858;2022-11-15T14:29:52;9.77;;;6.93;;
16822;SDS011;8528;49.976;11.858;2022-11-15T14:35:15;12.53;;;10.17;;
16822;SDS011;8528;49.976;11.858;2022-11-15T14:37:44;9.90;;;7.27;;
16822;SDS011;8528;49.976;11.858;2022-11-15T14:40:12;5.53;;;5.03;;
16822;SDS011;8528;49.976;11.858;2022-11-15T14:42:48;7.03;;;3.90;;
16822;SDS011;8528;49.976;11.858;2022-11-15T14:45:17;13.67;;;9.37;;
16822;SDS011;8528;49.976;11.858;2022-11-15T14:47:46;59.97;;;32.90;;
16822;SDS011;8528;49.976;11.858;2022-11-15T14:50:14;26.20;;;17.00;;
16822;SDS011;8528;49.976;11.858;2022-11-15T14:52:43;21.67;;;14.27;;
16822;SDS011;8528;49.976;11.858;2022-11-15T14:55:23;8.07;;;6.70;;
16822;SDS011;8528;49.976;11.858;2022-11-15T14:57:58;49.20;;;27.57;;
16822;SDS011;8528;49.976;11.858;2022-11-15T15:00:25;27.27;;;14.57;;
16822;SDS011;8528;49.976;11.858;2022-11-15T15:03:00;12.83;;;7.27;;
16822;SDS011;8528;49.976;11.858;2022-11-15T15:05:32;9.57;;;6.60;;
16822;SDS011;8528;49.976;11.858;2022-11-15T15:07:59;18.90;;;13.70;;
16822;SDS011;8528;49.976;11.858;2022-11-15T15:10:30;53.00;;;34.30;;
16822;SDS011;8528;49.976;11.858;2022-11-15T15:13:25;12.73;;;8.73;;
16822;SDS011;8528;49.976;11.858;2022-11-15T15:15:55;10.40;;;9.20;;
16822;SDS011;8528;49.976;11.858;2022-11-15T15:18:22;8.37;;;7.53;;
16822;SDS011;8528;49.976;11.858;2022-11-15T15:20:51;7.90;;;7.10;;
16822;SDS011;8528;49.976;11.858;2022-11-15T15:23:23;13.63;;;9.33;;
16822;SDS011;8528;49.976;11.858;2022-11-15T15:25:55;15.90;;;10.10;;
16822;SDS011;8528;49.976;11.858;2022-11-15T15:28:23;6.53;;;5.40;;
16822;SDS011;8528;49.976;11.858;2022-11-15T15:30:53;7.97;;;5.43;;
16822;SDS011;8528;49.976;11.858;2022-11-15T15:33:20;8.33;;;6.10;;
16822;SDS011;8528;49.976;11.858;2022-11-15T15:35:47;9.10;;;5.40;;
16822;SDS011;8528;49.976;11.858;2022-11-15T15:38:17;50.27;;;28.43;;
16822;SDS011;8528;49.976;11.858;2022-11-15T15:40:44;40.90;;;17.43;;
16822;SDS011;8528;49.976;11.858;2022-11-15T15:43:12;27.43;;;13.90;;
16822;SDS011;8528;49.976;11.858;2022-11-15T15:45:40;38.40;;;22.97;;
16822;SDS011;8528;49.976;11.858;2022-11-15T15:48:12;35.10;;;20.83;;
16822;SDS011;8528;49.976;11.858;2022-11-15T15:50:40;19.03;;;15.03;;
16822;SDS011;8528;49.976;11.858;2022-11-15T15:53:11;30.90;;;18.73;;
16822;SDS011;8528;49.976;11.858;2022-11-15T15:55:39;50.53;;;26.90;;
16822;SDS011;8528;49.976;11.858;2022-11-15T15:58:05;48.63;;;23.90;;
16822;SDS011;8528;49.976;11.858;2022-11-15T16:00:34;42.90;;;24.30;;
16822;SDS011;8528;49.976;11.858;2022-11-15T16:03:02;44.33;;;24.90;;
16822;SDS011;8528;49.976;11.858;2022-11-15T16:05:30;38.03;;;22.40;;
16822;SDS011;8528;49.976;11.858;2022-11-15T16:07:57;34.30;;;19.60;;
16822;SDS011;8528;49.976;11.858;2022-11-15T16:10:25;40.70;;;23.47;;
16822;SDS011;8528;49.976;11.858;2022-11-15T16:12:54;56.10;;;32.93;;
16822;SDS011;8528;49.976;11.858;2022-11-15T16:15:23;40.27;;;27.40;;
16822;SDS011;8528;49.976;11.858;2022-11-15T16:17:55;18.50;;;13.63;;
16822;SDS011;8528;49.976;11.858;2022-11-15T16:20:43;19.40;;;14.90;;
16822;SDS011;8528;49.976;11.858;2022-11-15T16:23:16;20.27;;;12.80;;
16822;SDS011;8528;49.976;11.858;2022-11-15T16:28:22;15.10;;;10.17;;
16822;SDS011;8528;49.976;11.858;2022-11-15T16:31:01;16.20;;;10.30;;
16822;SDS011;8528;49.976;11.858;2022-11-15T16:33:29;24.73;;;19.07;;
16822;SDS011;8528;49.976;11.858;2022-11-15T16:35:58;19.33;;;14.50;;
16822;SDS011;8528;49.976;11.858;2022-11-15T16:38:25;22.23;;;16.13;;
16822;SDS011;8528;49.976;11.858;2022-11-15T16:40:52;16.83;;;10.97;;
16822;SDS011;8528;49.976;11.858;2022-11-15T16:43:19;11.87;;;9.57;;
16822;SDS011;8528;49.976;11.858;2022-11-15T16:45:48;14.07;;;9.77;;
16822;SDS011;8528;49.976;11.858;2022-11-15T16:48:22;23.90;;;12.33;;
16822;SDS011;8528;49.976;11.858;2022-11-15T16:50:56;12.87;;;10.07;;
16822;SDS011;8528;49.976;11.858;2022-11-15T16:53:25;25.43;;;17.73;;
16822;SDS011;8528;49.976;11.858;2022-11-15T16:55:54;15.70;;;12.23;;
16822;SDS011;8528;49.976;11.858;2022-11-15T16:58:21;14.37;;;10.00;;
16822;SDS011;8528;49.976;11.858;2022-11-15T17:00:51;13.00;;;9.40;;
16822;SDS011;8528;49.976;11.858;2022-11-15T17:03:19;11.37;;;8.80;;
16822;SDS011;8528;49.976;11.858;2022-11-15T17:05:47;16.33;;;9.90;;